sensor_id;sensor_type;location;lat;lon;timestamp;temperature;humidity
8633;DHT22;4354;49.832;10.746;2023-05-13T00:00:42;7.60;99.90
8633;DHT22;4354;49.832;10.746;2023-05-13T00:03:09;7.50;99.90
8633;DHT22;4354;49.832;10.746;2023-05-13T00:05:36;7.50;99.90
8633;DHT22;4354;49.832;10.746;2023-05-13T00:08:03;7.50;99.90
8633;DHT22;4354;49.832;10.746;2023-05-13T00:10:33;7.50;99.90
8633;DHT22;4354;49.832;10.746;2023-05-13T00:13:01;7.50;99.90
8633;DHT22;4354;49.832;10.746;2023-05-13T00:15:28;7.40;99.90
8633;DHT22;4354;49.832;10.746;2023-05-13T00:17:54;7.50;99.90
8633;DHT22;4354;49.832;10.746;2023-05-13T00:20:22;7.50;99.90
8633;DHT22;4354;49.832;10.746;2023-05-13T00:22:49;7.60;99.90
8633;DHT22;4354;49.832;10.746;2023-05-13T00:25:15;7.70;99.90
8633;DHT22;4354;49.832;10.746;2023-05-13T00:27:44;7.80;99.90
8633;DHT22;4354;49.832;10.746;2023-05-13T00:30:11;8.00;99.90
8633;DHT22;4354;49.832;10.746;2023-05-13T00:32:38;8.10;99.90
8633;DHT22;4354;49.832;10.746;2023-05-13T00:35:05;8.20;99.90
8633;DHT22;4354;49.832;10.746;2023-05-13T00:37:31;8.30;99.90
8633;DHT22;4354;49.832;10.746;2023-05-13T00:39:58;8.50;99.90
8633;DHT22;4354;49.832;10.746;2023-05-13T00:42:25;8.60;99.90
8633;DHT22;4354;49.832;10.746;2023-05-13T00:44:52;8.70;99.90
8633;DHT22;4354;49.832;10.746;2023-05-13T00:47:18;8.80;99.90
8633;DHT22;4354;49.832;10.746;2023-05-13T00:49:45;8.80;99.90
8633;DHT22;4354;49.832;10.746;2023-05-13T00:52:12;8.90;99.90
8633;DHT22;4354;49.832;10.746;2023-05-13T00:54:39;8.90;99.90
8633;DHT22;4354;49.832;10.746;2023-05-13T00:57:06;8.90;99.90
8633;DHT22;4354;49.832;10.746;2023-05-13T00:59:33;8.90;99.90
8633;DHT22;4354;49.832;10.746;2023-05-13T01:05:21;8.80;99.90
8633;DHT22;4354;49.832;10.746;2023-05-13T01:08:01;8.70;99.90
8633;DHT22;4354;49.832;10.746;2023-05-13T01:10:39;8.60;99.90
8633;DHT22;4354;49.832;10.746;2023-05-13T01:13:10;8.50;99.90
8633;DHT22;4354;49.832;10.746;2023-05-13T01:15:50;8.50;99.90
8633;DHT22;4354;49.832;10.746;2023-05-13T01:18:21;8.40;99.90
8633;DHT22;4354;49.832;10.746;2023-05-13T01:20:50;8.40;99.90
8633;DHT22;4354;49.832;10.746;2023-05-13T01:23:16;8.30;99.90
8633;DHT22;4354;49.832;10.746;2023-05-13T01:25:43;8.20;99.90
8633;DHT22;4354;49.832;10.746;2023-05-13T01:28:10;8.20;99.90
8633;DHT22;4354;49.832;10.746;2023-05-13T01:30:38;8.10;99.90
8633;DHT22;4354;49.832;10.746;2023-05-13T01:33:05;8.00;99.90
8633;DHT22;4354;49.832;10.746;2023-05-13T01:35:32;7.90;99.90
8633;DHT22;4354;49.832;10.746;2023-05-13T01:38:01;7.90;99.90
8633;DHT22;4354;49.832;10.746;2023-05-13T01:40:29;7.80;99.90
8633;DHT22;4354;49.832;10.746;2023-05-13T01:42:59;7.80;99.90
8633;DHT22;4354;49.832;10.746;2023-05-13T01:45:29;7.80;99.90
8633;DHT22;4354;49.832;10.746;2023-05-13T01:47:58;7.80;99.90
8633;DHT22;4354;49.832;10.746;2023-05-13T01:50:25;7.80;99.90
8633;DHT22;4354;49.832;10.746;2023-05-13T01:52:51;7.70;99.90
8633;DHT22;4354;49.832;10.746;2023-05-13T01:55:18;7.80;99.90
8633;DHT22;4354;49.832;10.746;2023-05-13T01:57:45;7.80;99.90
8633;DHT22;4354;49.832;10.746;2023-05-13T02:00:12;7.80;99.90
8633;DHT22;4354;49.832;10.746;2023-05-13T02:02:39;7.80;99.90
8633;DHT22;4354;49.832;10.746;2023-05-13T02:05:06;7.80;99.90
8633;DHT22;4354;49.832;10.746;2023-05-13T02:07:33;7.80;99.90
8633;DHT22;4354;49.832;10.746;2023-05-13T02:10:00;7.70;99.90
8633;DHT22;4354;49.832;10.746;2023-05-13T02:12:27;7.70;99.90
8633;DHT22;4354;49.832;10.746;2023-05-13T02:14:54;7.60;99.90
8633;DHT22;4354;49.832;10.746;2023-05-13T02:17:21;7.60;99.90
8633;DHT22;4354;49.832;10.746;2023-05-13T02:19:48;7.50;99.90
8633;DHT22;4354;49.832;10.746;2023-05-13T02:22:15;7.50;99.90
8633;DHT22;4354;49.832;10.746;2023-05-13T02:24:42;7.50;99.90
8633;DHT22;4354;49.832;10.746;2023-05-13T02:27:08;7.60;99.90
8633;DHT22;4354;49.832;10.746;2023-05-13T02:29:38;7.60;99.90
8633;DHT22;4354;49.832;10.746;2023-05-13T02:32:05;7.60;99.90
8633;DHT22;4354;49.832;10.746;2023-05-13T02:34:32;7.70;99.90
8633;DHT22;4354;49.832;10.746;2023-05-13T02:36:58;7.70;99.90
8633;DHT22;4354;49.832;10.746;2023-05-13T02:39:25;7.70;99.90
8633;DHT22;4354;49.832;10.746;2023-05-13T02:41:52;7.80;99.90
8633;DHT22;4354;49.832;10.746;2023-05-13T02:44:19;7.70;99.90
8633;DHT22;4354;49.832;10.746;2023-05-13T02:46:45;7.70;99.90
8633;DHT22;4354;49.832;10.746;2023-05-13T02:49:12;7.70;99.90
8633;DHT22;4354;49.832;10.746;2023-05-13T02:51:39;7.60;99.90
8633;DHT22;4354;49.832;10.746;2023-05-13T02:54:06;7.50;99.90
8633;DHT22;4354;49.832;10.746;2023-05-13T02:56:33;7.50;99.90
8633;DHT22;4354;49.832;10.746;2023-05-13T02:58:59;7.50;99.90
8633;DHT22;4354;49.832;10.746;2023-05-13T03:01:26;7.40;99.90
8633;DHT22;4354;49.832;10.746;2023-05-13T03:03:53;7.40;99.90
8633;DHT22;4354;49.832;10.746;2023-05-13T03:06:20;7.30;99.90
8633;DHT22;4354;49.832;10.746;2023-05-13T03:08:46;7.30;99.90
8633;DHT22;4354;49.832;10.746;2023-05-13T03:11:13;7.30;99.90
8633;DHT22;4354;49.832;10.746;2023-05-13T03:13:40;7.20;99.90
8633;DHT22;4354;49.832;10.746;2023-05-13T03:16:07;7.20;99.90
8633;DHT22;4354;49.832;10.746;2023-05-13T03:18:34;7.20;99.90
8633;DHT22;4354;49.832;10.746;2023-05-13T03:21:01;7.10;99.90
8633;DHT22;4354;49.832;10.746;2023-05-13T03:23:28;7.10;99.90
8633;DHT22;4354;49.832;10.746;2023-05-13T03:25:55;7.10;99.90
8633;DHT22;4354;49.832;10.746;2023-05-13T03:28:22;7.00;99.90
8633;DHT22;4354;49.832;10.746;2023-05-13T03:30:48;6.90;99.90
8633;DHT22;4354;49.832;10.746;2023-05-13T03:33:16;7.00;99.90
8633;DHT22;4354;49.832;10.746;2023-05-13T03:35:43;7.00;99.90
8633;DHT22;4354;49.832;10.746;2023-05-13T03:38:09;7.00;99.90
8633;DHT22;4354;49.832;10.746;2023-05-13T03:40:36;6.90;99.90
8633;DHT22;4354;49.832;10.746;2023-05-13T03:43:03;6.90;99.90
8633;DHT22;4354;49.832;10.746;2023-05-13T03:45:30;6.90;99.90
8633;DHT22;4354;49.832;10.746;2023-05-13T03:47:56;6.90;99.90
8633;DHT22;4354;49.832;10.746;2023-05-13T03:50:23;6.90;99.90
8633;DHT22;4354;49.832;10.746;2023-05-13T03:52:50;7.00;99.90
8633;DHT22;4354;49.832;10.746;2023-05-13T03:55:17;7.00;99.90
8633;DHT22;4354;49.832;10.746;2023-05-13T03:57:46;7.00;99.90
8633;DHT22;4354;49.832;10.746;2023-05-13T04:00:14;7.00;99.90
8633;DHT22;4354;49.832;10.746;2023-05-13T04:02:41;7.00;99.90
8633;DHT22;4354;49.832;10.746;2023-05-13T04:05:08;7.00;99.90
8633;DHT22;4354;49.832;10.746;2023-05-13T04:07:35;7.00;99.90
8633;DHT22;4354;49.832;10.746;2023-05-13T04:10:02;7.10;99.90
8633;DHT22;4354;49.832;10.746;2023-05-13T04:12:29;7.10;99.90
8633;DHT22;4354;49.832;10.746;2023-05-13T04:14:56;7.20;99.90
8633;DHT22;4354;49.832;10.746;2023-05-13T04:17:23;7.20;99.90
8633;DHT22;4354;49.832;10.746;2023-05-13T04:19:53;7.20;99.90
8633;DHT22;4354;49.832;10.746;2023-05-13T04:22:20;7.30;99.90
8633;DHT22;4354;49.832;10.746;2023-05-13T04:24:47;7.40;99.90
8633;DHT22;4354;49.832;10.746;2023-05-13T04:27:17;7.40;99.90
8633;DHT22;4354;49.832;10.746;2023-05-13T04:29:44;7.50;99.90
8633;DHT22;4354;49.832;10.746;2023-05-13T04:32:11;7.50;99.90
8633;DHT22;4354;49.832;10.746;2023-05-13T04:34:41;7.50;99.90
8633;DHT22;4354;49.832;10.746;2023-05-13T04:37:08;7.50;99.90
8633;DHT22;4354;49.832;10.746;2023-05-13T04:39:35;7.60;99.90
8633;DHT22;4354;49.832;10.746;2023-05-13T04:42:01;7.60;99.90
8633;DHT22;4354;49.832;10.746;2023-05-13T04:44:28;7.60;99.90
8633;DHT22;4354;49.832;10.746;2023-05-13T04:46:55;7.60;99.90
8633;DHT22;4354;49.832;10.746;2023-05-13T04:49:22;7.60;99.90
8633;DHT22;4354;49.832;10.746;2023-05-13T04:51:49;7.60;99.90
8633;DHT22;4354;49.832;10.746;2023-05-13T04:54:16;7.60;99.90
8633;DHT22;4354;49.832;10.746;2023-05-13T04:56:43;7.60;99.90
8633;DHT22;4354;49.832;10.746;2023-05-13T04:59:10;7.60;99.90
8633;DHT22;4354;49.832;10.746;2023-05-13T05:01:36;7.70;99.90
8633;DHT22;4354;49.832;10.746;2023-05-13T05:04:04;7.70;99.90
8633;DHT22;4354;49.832;10.746;2023-05-13T05:06:31;7.80;99.90
8633;DHT22;4354;49.832;10.746;2023-05-13T05:08:58;7.80;99.90
8633;DHT22;4354;49.832;10.746;2023-05-13T05:11:25;7.90;99.90
8633;DHT22;4354;49.832;10.746;2023-05-13T05:13:51;8.00;99.90
8633;DHT22;4354;49.832;10.746;2023-05-13T05:16:18;8.00;99.90
8633;DHT22;4354;49.832;10.746;2023-05-13T05:18:45;8.10;99.90
8633;DHT22;4354;49.832;10.746;2023-05-13T05:21:12;8.20;99.90
8633;DHT22;4354;49.832;10.746;2023-05-13T05:23:39;8.30;99.90
8633;DHT22;4354;49.832;10.746;2023-05-13T05:26:05;8.40;99.90
8633;DHT22;4354;49.832;10.746;2023-05-13T05:28:37;8.50;99.90
8633;DHT22;4354;49.832;10.746;2023-05-13T05:31:05;8.70;99.90
8633;DHT22;4354;49.832;10.746;2023-05-13T05:33:32;8.90;99.90
8633;DHT22;4354;49.832;10.746;2023-05-13T05:35:59;9.10;99.90
8633;DHT22;4354;49.832;10.746;2023-05-13T05:38:26;9.30;99.90
8633;DHT22;4354;49.832;10.746;2023-05-13T05:40:53;9.40;99.90
8633;DHT22;4354;49.832;10.746;2023-05-13T05:43:19;9.50;99.90
8633;DHT22;4354;49.832;10.746;2023-05-13T05:45:46;9.60;99.90
8633;DHT22;4354;49.832;10.746;2023-05-13T05:48:13;9.70;99.90
8633;DHT22;4354;49.832;10.746;2023-05-13T05:50:40;9.80;99.90
8633;DHT22;4354;49.832;10.746;2023-05-13T05:53:07;9.90;99.90
8633;DHT22;4354;49.832;10.746;2023-05-13T05:55:33;10.00;99.90
8633;DHT22;4354;49.832;10.746;2023-05-13T05:58:04;10.20;99.90
8633;DHT22;4354;49.832;10.746;2023-05-13T06:00:31;10.20;99.90
8633;DHT22;4354;49.832;10.746;2023-05-13T06:02:58;10.20;99.90
8633;DHT22;4354;49.832;10.746;2023-05-13T06:05:26;10.30;99.90
8633;DHT22;4354;49.832;10.746;2023-05-13T06:07:52;10.40;99.90
8633;DHT22;4354;49.832;10.746;2023-05-13T06:10:19;10.50;99.90
8633;DHT22;4354;49.832;10.746;2023-05-13T06:12:46;10.60;99.90
8633;DHT22;4354;49.832;10.746;2023-05-13T06:15:13;10.70;99.90
8633;DHT22;4354;49.832;10.746;2023-05-13T06:17:40;10.80;99.90
8633;DHT22;4354;49.832;10.746;2023-05-13T06:20:07;11.00;99.90
8633;DHT22;4354;49.832;10.746;2023-05-13T06:22:34;11.20;99.90
8633;DHT22;4354;49.832;10.746;2023-05-13T06:25:01;11.50;99.90
8633;DHT22;4354;49.832;10.746;2023-05-13T06:27:28;11.70;99.90
8633;DHT22;4354;49.832;10.746;2023-05-13T06:29:54;12.00;99.90
8633;DHT22;4354;49.832;10.746;2023-05-13T06:32:21;12.30;99.90
8633;DHT22;4354;49.832;10.746;2023-05-13T06:34:48;12.50;99.90
8633;DHT22;4354;49.832;10.746;2023-05-13T06:37:19;12.70;99.90
8633;DHT22;4354;49.832;10.746;2023-05-13T06:39:46;12.90;99.90
8633;DHT22;4354;49.832;10.746;2023-05-13T06:42:13;13.00;99.90
8633;DHT22;4354;49.832;10.746;2023-05-13T06:44:40;13.30;99.90
8633;DHT22;4354;49.832;10.746;2023-05-13T06:47:07;13.40;99.90
8633;DHT22;4354;49.832;10.746;2023-05-13T06:49:35;13.60;99.90
8633;DHT22;4354;49.832;10.746;2023-05-13T06:52:02;13.70;99.90
8633;DHT22;4354;49.832;10.746;2023-05-13T06:54:29;13.90;99.90
8633;DHT22;4354;49.832;10.746;2023-05-13T06:56:56;14.00;99.90
8633;DHT22;4354;49.832;10.746;2023-05-13T06:59:22;14.20;99.90
8633;DHT22;4354;49.832;10.746;2023-05-13T07:01:49;14.20;99.90
8633;DHT22;4354;49.832;10.746;2023-05-13T07:04:16;14.20;99.90
8633;DHT22;4354;49.832;10.746;2023-05-13T07:06:43;14.20;99.90
8633;DHT22;4354;49.832;10.746;2023-05-13T07:09:10;14.30;99.90
8633;DHT22;4354;49.832;10.746;2023-05-13T07:11:36;14.70;99.90
8633;DHT22;4354;49.832;10.746;2023-05-13T07:14:03;14.80;99.90
8633;DHT22;4354;49.832;10.746;2023-05-13T07:16:30;14.80;99.90
8633;DHT22;4354;49.832;10.746;2023-05-13T07:18:57;14.90;99.90
8633;DHT22;4354;49.832;10.746;2023-05-13T07:21:24;14.90;99.90
8633;DHT22;4354;49.832;10.746;2023-05-13T07:23:51;14.80;99.90
8633;DHT22;4354;49.832;10.746;2023-05-13T07:26:18;14.80;99.90
8633;DHT22;4354;49.832;10.746;2023-05-13T07:28:44;14.80;99.90
8633;DHT22;4354;49.832;10.746;2023-05-13T07:31:11;14.80;99.90
8633;DHT22;4354;49.832;10.746;2023-05-13T07:33:38;14.80;99.90
8633;DHT22;4354;49.832;10.746;2023-05-13T07:36:05;15.10;99.90
8633;DHT22;4354;49.832;10.746;2023-05-13T07:38:32;15.30;99.90
8633;DHT22;4354;49.832;10.746;2023-05-13T07:40:59;15.30;99.90
8633;DHT22;4354;49.832;10.746;2023-05-13T07:43:26;15.40;99.90
8633;DHT22;4354;49.832;10.746;2023-05-13T07:45:54;15.40;99.90
8633;DHT22;4354;49.832;10.746;2023-05-13T07:48:20;15.30;99.90
8633;DHT22;4354;49.832;10.746;2023-05-13T07:50:50;15.40;99.90
8633;DHT22;4354;49.832;10.746;2023-05-13T07:53:16;15.40;99.90
8633;DHT22;4354;49.832;10.746;2023-05-13T07:55:45;15.40;99.90
8633;DHT22;4354;49.832;10.746;2023-05-13T07:58:12;15.70;99.90
8633;DHT22;4354;49.832;10.746;2023-05-13T08:00:38;15.80;99.90
8633;DHT22;4354;49.832;10.746;2023-05-13T08:03:05;15.90;99.90
8633;DHT22;4354;49.832;10.746;2023-05-13T08:05:32;15.90;99.90
8633;DHT22;4354;49.832;10.746;2023-05-13T08:07:59;15.90;99.90
8633;DHT22;4354;49.832;10.746;2023-05-13T08:10:27;16.10;99.90
8633;DHT22;4354;49.832;10.746;2023-05-13T08:12:54;16.20;99.90
8633;DHT22;4354;49.832;10.746;2023-05-13T08:15:24;16.20;99.90
8633;DHT22;4354;49.832;10.746;2023-05-13T08:17:52;16.10;99.90
8633;DHT22;4354;49.832;10.746;2023-05-13T08:20:19;16.00;99.90
8633;DHT22;4354;49.832;10.746;2023-05-13T08:22:46;16.00;99.90
8633;DHT22;4354;49.832;10.746;2023-05-13T08:25:13;16.00;99.90
8633;DHT22;4354;49.832;10.746;2023-05-13T08:27:41;16.10;99.90
8633;DHT22;4354;49.832;10.746;2023-05-13T08:30:08;16.30;99.90
8633;DHT22;4354;49.832;10.746;2023-05-13T08:32:35;16.40;99.90
8633;DHT22;4354;49.832;10.746;2023-05-13T08:35:02;16.60;99.90
8633;DHT22;4354;49.832;10.746;2023-05-13T08:37:29;16.70;99.90
8633;DHT22;4354;49.832;10.746;2023-05-13T08:42:28;17.20;99.90
8633;DHT22;4354;49.832;10.746;2023-05-13T08:44:57;17.40;99.90
8633;DHT22;4354;49.832;10.746;2023-05-13T08:50:02;17.90;99.90
8633;DHT22;4354;49.832;10.746;2023-05-13T08:52:30;18.30;99.90
8633;DHT22;4354;49.832;10.746;2023-05-13T08:54:58;19.20;99.90
8633;DHT22;4354;49.832;10.746;2023-05-13T08:57:26;20.00;99.90
8633;DHT22;4354;49.832;10.746;2023-05-13T08:59:53;20.50;99.90
8633;DHT22;4354;49.832;10.746;2023-05-13T09:02:20;21.30;99.90
8633;DHT22;4354;49.832;10.746;2023-05-13T09:04:51;21.80;99.90
8633;DHT22;4354;49.832;10.746;2023-05-13T09:07:18;22.40;99.90
8633;DHT22;4354;49.832;10.746;2023-05-13T09:09:45;22.90;99.90
8633;DHT22;4354;49.832;10.746;2023-05-13T09:15:09;23.10;99.90
8633;DHT22;4354;49.832;10.746;2023-05-13T09:17:38;23.20;99.90
8633;DHT22;4354;49.832;10.746;2023-05-13T09:20:07;23.70;99.90
8633;DHT22;4354;49.832;10.746;2023-05-13T09:22:34;24.10;99.90
8633;DHT22;4354;49.832;10.746;2023-05-13T09:25:01;24.20;99.90
8633;DHT22;4354;49.832;10.746;2023-05-13T09:27:40;24.70;99.90
8633;DHT22;4354;49.832;10.746;2023-05-13T09:30:08;24.80;99.90
8633;DHT22;4354;49.832;10.746;2023-05-13T09:32:35;25.30;98.70
8633;DHT22;4354;49.832;10.746;2023-05-13T09:35:12;24.90;94.80
8633;DHT22;4354;49.832;10.746;2023-05-13T09:37:44;24.70;92.30
8633;DHT22;4354;49.832;10.746;2023-05-13T09:40:13;23.90;93.80
8633;DHT22;4354;49.832;10.746;2023-05-13T09:42:44;23.50;93.10
8633;DHT22;4354;49.832;10.746;2023-05-13T09:45:13;23.10;95.60
8633;DHT22;4354;49.832;10.746;2023-05-13T09:47:40;22.90;95.00
8633;DHT22;4354;49.832;10.746;2023-05-13T09:50:09;22.60;95.30
8633;DHT22;4354;49.832;10.746;2023-05-13T09:52:37;22.60;96.00
8633;DHT22;4354;49.832;10.746;2023-05-13T09:55:08;22.60;94.10
8633;DHT22;4354;49.832;10.746;2023-05-13T09:57:35;23.10;94.80
8633;DHT22;4354;49.832;10.746;2023-05-13T10:00:04;23.90;92.60
8633;DHT22;4354;49.832;10.746;2023-05-13T10:02:32;24.20;90.30
8633;DHT22;4354;49.832;10.746;2023-05-13T10:05:00;24.00;88.00
8633;DHT22;4354;49.832;10.746;2023-05-13T10:07:28;23.60;88.20
8633;DHT22;4354;49.832;10.746;2023-05-13T10:09:57;23.00;90.10
8633;DHT22;4354;49.832;10.746;2023-05-13T10:12:27;22.10;90.40
8633;DHT22;4354;49.832;10.746;2023-05-13T10:14:54;21.30;91.70
8633;DHT22;4354;49.832;10.746;2023-05-13T10:17:23;20.60;92.80
8633;DHT22;4354;49.832;10.746;2023-05-13T10:19:52;20.00;93.70
8633;DHT22;4354;49.832;10.746;2023-05-13T10:22:30;19.40;96.60
8633;DHT22;4354;49.832;10.746;2023-05-13T10:24:58;18.90;97.10
8633;DHT22;4354;49.832;10.746;2023-05-13T10:27:30;18.40;99.20
8633;DHT22;4354;49.832;10.746;2023-05-13T10:29:59;18.10;99.90
8633;DHT22;4354;49.832;10.746;2023-05-13T10:32:29;18.20;99.90
8633;DHT22;4354;49.832;10.746;2023-05-13T10:35:04;18.30;99.90
8633;DHT22;4354;49.832;10.746;2023-05-13T10:43:29;18.80;99.90
8633;DHT22;4354;49.832;10.746;2023-05-13T10:46:01;19.10;99.90
8633;DHT22;4354;49.832;10.746;2023-05-13T10:48:47;19.60;99.90
8633;DHT22;4354;49.832;10.746;2023-05-13T10:51:15;19.70;98.50
8633;DHT22;4354;49.832;10.746;2023-05-13T10:53:47;19.80;97.80
8633;DHT22;4354;49.832;10.746;2023-05-13T10:56:19;19.80;97.20
8633;DHT22;4354;49.832;10.746;2023-05-13T10:58:58;19.60;96.50
8633;DHT22;4354;49.832;10.746;2023-05-13T11:01:28;19.40;96.70
8633;DHT22;4354;49.832;10.746;2023-05-13T11:04:00;19.00;97.20
8633;DHT22;4354;49.832;10.746;2023-05-13T11:08:55;18.80;94.50
8633;DHT22;4354;49.832;10.746;2023-05-13T11:11:24;18.30;96.40
8633;DHT22;4354;49.832;10.746;2023-05-13T11:13:54;18.10;99.10
8633;DHT22;4354;49.832;10.746;2023-05-13T11:16:21;18.50;98.70
8633;DHT22;4354;49.832;10.746;2023-05-13T11:18:51;18.80;98.20
8633;DHT22;4354;49.832;10.746;2023-05-13T11:21:29;19.00;98.80
8633;DHT22;4354;49.832;10.746;2023-05-13T11:24:06;19.30;97.40
8633;DHT22;4354;49.832;10.746;2023-05-13T11:29:47;19.10;99.90
8633;DHT22;4354;49.832;10.746;2023-05-13T11:32:14;19.80;96.90
8633;DHT22;4354;49.832;10.746;2023-05-13T11:35:01;19.70;95.60
8633;DHT22;4354;49.832;10.746;2023-05-13T11:37:30;19.80;94.90
8633;DHT22;4354;49.832;10.746;2023-05-13T11:39:58;19.90;93.50
8633;DHT22;4354;49.832;10.746;2023-05-13T11:42:26;20.00;95.30
8633;DHT22;4354;49.832;10.746;2023-05-13T11:44:54;20.30;94.20
8633;DHT22;4354;49.832;10.746;2023-05-13T11:47:27;20.60;94.00
8633;DHT22;4354;49.832;10.746;2023-05-13T11:49:54;20.70;92.10
8633;DHT22;4354;49.832;10.746;2023-05-13T11:52:21;21.40;93.10
8633;DHT22;4354;49.832;10.746;2023-05-13T11:54:52;21.60;90.80
8633;DHT22;4354;49.832;10.746;2023-05-13T12:00:00;21.40;87.60
8633;DHT22;4354;49.832;10.746;2023-05-13T12:02:30;22.00;88.60
8633;DHT22;4354;49.832;10.746;2023-05-13T12:05:02;21.90;88.40
8633;DHT22;4354;49.832;10.746;2023-05-13T12:07:31;21.80;84.60
8633;DHT22;4354;49.832;10.746;2023-05-13T12:10:00;21.40;84.60
8633;DHT22;4354;49.832;10.746;2023-05-13T12:12:29;21.60;86.40
8633;DHT22;4354;49.832;10.746;2023-05-13T12:14:59;21.60;82.50
8633;DHT22;4354;49.832;10.746;2023-05-13T12:17:27;21.50;83.00
8633;DHT22;4354;49.832;10.746;2023-05-13T12:25:41;20.00;82.60
8633;DHT22;4354;49.832;10.746;2023-05-13T12:31:02;20.70;85.30
8633;DHT22;4354;49.832;10.746;2023-05-13T12:33:39;21.30;83.50
8633;DHT22;4354;49.832;10.746;2023-05-13T12:36:19;21.60;79.60
8633;DHT22;4354;49.832;10.746;2023-05-13T12:39:02;21.90;81.70
8633;DHT22;4354;49.832;10.746;2023-05-13T12:41:40;21.90;77.60
8633;DHT22;4354;49.832;10.746;2023-05-13T12:44:08;21.80;78.70
8633;DHT22;4354;49.832;10.746;2023-05-13T12:46:36;21.20;77.30
8633;DHT22;4354;49.832;10.746;2023-05-13T12:49:04;21.50;76.10
8633;DHT22;4354;49.832;10.746;2023-05-13T12:51:31;21.70;76.30
8633;DHT22;4354;49.832;10.746;2023-05-13T12:53:59;22.30;77.30
8633;DHT22;4354;49.832;10.746;2023-05-13T12:56:27;22.70;71.00
8633;DHT22;4354;49.832;10.746;2023-05-13T12:58:54;22.50;65.90
8633;DHT22;4354;49.832;10.746;2023-05-13T13:01:21;22.40;71.40
8633;DHT22;4354;49.832;10.746;2023-05-13T13:03:48;22.80;68.10
8633;DHT22;4354;49.832;10.746;2023-05-13T13:06:16;23.10;61.80
8633;DHT22;4354;49.832;10.746;2023-05-13T13:08:43;22.90;64.00
8633;DHT22;4354;49.832;10.746;2023-05-13T13:11:10;22.70;63.00
8633;DHT22;4354;49.832;10.746;2023-05-13T13:13:40;22.50;65.70
8633;DHT22;4354;49.832;10.746;2023-05-13T13:16:07;22.50;65.30
8633;DHT22;4354;49.832;10.746;2023-05-13T13:18:35;22.30;65.30
8633;DHT22;4354;49.832;10.746;2023-05-13T13:21:02;22.60;64.40
8633;DHT22;4354;49.832;10.746;2023-05-13T13:23:30;22.40;63.60
8633;DHT22;4354;49.832;10.746;2023-05-13T13:25:57;22.00;63.30
8633;DHT22;4354;49.832;10.746;2023-05-13T13:28:25;21.90;63.80
8633;DHT22;4354;49.832;10.746;2023-05-13T13:30:52;21.40;67.20
8633;DHT22;4354;49.832;10.746;2023-05-13T13:33:19;20.70;64.00
8633;DHT22;4354;49.832;10.746;2023-05-13T13:35:47;20.50;67.60
8633;DHT22;4354;49.832;10.746;2023-05-13T13:38:14;20.00;71.60
8633;DHT22;4354;49.832;10.746;2023-05-13T13:40:41;20.30;71.30
8633;DHT22;4354;49.832;10.746;2023-05-13T13:43:10;20.50;72.10
8633;DHT22;4354;49.832;10.746;2023-05-13T13:45:36;20.60;71.10
8633;DHT22;4354;49.832;10.746;2023-05-13T13:48:04;20.70;72.50
8633;DHT22;4354;49.832;10.746;2023-05-13T13:50:32;20.50;71.30
8633;DHT22;4354;49.832;10.746;2023-05-13T13:52:59;20.60;70.90
8633;DHT22;4354;49.832;10.746;2023-05-13T13:55:26;20.60;68.50
8633;DHT22;4354;49.832;10.746;2023-05-13T13:57:53;20.50;70.50
8633;DHT22;4354;49.832;10.746;2023-05-13T14:00:19;20.10;69.80
8633;DHT22;4354;49.832;10.746;2023-05-13T14:02:47;19.90;70.50
8633;DHT22;4354;49.832;10.746;2023-05-13T14:05:14;19.70;72.30
8633;DHT22;4354;49.832;10.746;2023-05-13T14:07:41;19.50;68.70
8633;DHT22;4354;49.832;10.746;2023-05-13T14:10:08;19.00;73.50
8633;DHT22;4354;49.832;10.746;2023-05-13T14:12:36;18.80;77.30
8633;DHT22;4354;49.832;10.746;2023-05-13T14:15:03;18.80;71.40
8633;DHT22;4354;49.832;10.746;2023-05-13T14:17:31;18.30;79.70
8633;DHT22;4354;49.832;10.746;2023-05-13T14:19:58;18.30;81.00
8633;DHT22;4354;49.832;10.746;2023-05-13T14:22:25;18.30;82.50
8633;DHT22;4354;49.832;10.746;2023-05-13T14:24:52;18.30;81.40
8633;DHT22;4354;49.832;10.746;2023-05-13T14:27:19;18.40;81.70
8633;DHT22;4354;49.832;10.746;2023-05-13T14:29:47;18.30;83.20
8633;DHT22;4354;49.832;10.746;2023-05-13T14:32:14;18.10;83.50
8633;DHT22;4354;49.832;10.746;2023-05-13T14:34:43;17.80;83.80
8633;DHT22;4354;49.832;10.746;2023-05-13T14:37:10;17.70;87.00
8633;DHT22;4354;49.832;10.746;2023-05-13T14:39:37;17.80;88.90
8633;DHT22;4354;49.832;10.746;2023-05-13T14:42:04;18.00;85.50
8633;DHT22;4354;49.832;10.746;2023-05-13T14:44:31;17.90;86.40
8633;DHT22;4354;49.832;10.746;2023-05-13T14:46:58;17.80;83.80
8633;DHT22;4354;49.832;10.746;2023-05-13T14:49:25;17.90;87.40
8633;DHT22;4354;49.832;10.746;2023-05-13T14:51:52;18.10;88.00
8633;DHT22;4354;49.832;10.746;2023-05-13T14:54:19;18.40;85.20
8633;DHT22;4354;49.832;10.746;2023-05-13T14:56:45;18.70;83.70
8633;DHT22;4354;49.832;10.746;2023-05-13T14:59:12;18.70;83.10
8633;DHT22;4354;49.832;10.746;2023-05-13T15:01:39;18.60;82.90
8633;DHT22;4354;49.832;10.746;2023-05-13T15:04:06;18.40;84.20
8633;DHT22;4354;49.832;10.746;2023-05-13T15:06:37;18.00;84.60
8633;DHT22;4354;49.832;10.746;2023-05-13T15:09:05;17.80;87.60
8633;DHT22;4354;49.832;10.746;2023-05-13T15:11:32;17.70;90.10
8633;DHT22;4354;49.832;10.746;2023-05-13T15:14:00;17.70;90.30
8633;DHT22;4354;49.832;10.746;2023-05-13T15:16:27;17.70;90.00
8633;DHT22;4354;49.832;10.746;2023-05-13T15:18:54;17.70;89.10
8633;DHT22;4354;49.832;10.746;2023-05-13T15:21:21;17.60;90.30
8633;DHT22;4354;49.832;10.746;2023-05-13T15:23:47;17.50;90.90
8633;DHT22;4354;49.832;10.746;2023-05-13T15:26:14;17.50;91.30
8633;DHT22;4354;49.832;10.746;2023-05-13T15:28:41;17.50;91.20
8633;DHT22;4354;49.832;10.746;2023-05-13T15:31:08;17.60;92.00
8633;DHT22;4354;49.832;10.746;2023-05-13T15:33:34;17.70;92.60
8633;DHT22;4354;49.832;10.746;2023-05-13T15:36:01;17.70;91.90
8633;DHT22;4354;49.832;10.746;2023-05-13T15:38:29;17.60;91.90
8633;DHT22;4354;49.832;10.746;2023-05-13T15:40:56;17.60;92.40
8633;DHT22;4354;49.832;10.746;2023-05-13T15:43:22;17.50;90.70
8633;DHT22;4354;49.832;10.746;2023-05-13T15:45:49;17.50;91.80
8633;DHT22;4354;49.832;10.746;2023-05-13T15:48:16;17.50;90.90
8633;DHT22;4354;49.832;10.746;2023-05-13T15:50:43;17.50;90.00
8633;DHT22;4354;49.832;10.746;2023-05-13T15:53:10;17.40;92.10
8633;DHT22;4354;49.832;10.746;2023-05-13T15:55:37;17.30;91.80
8633;DHT22;4354;49.832;10.746;2023-05-13T15:58:05;17.20;93.30
8633;DHT22;4354;49.832;10.746;2023-05-13T16:00:32;17.30;93.70
8633;DHT22;4354;49.832;10.746;2023-05-13T16:03:00;17.20;91.50
8633;DHT22;4354;49.832;10.746;2023-05-13T16:05:27;17.00;93.80
8633;DHT22;4354;49.832;10.746;2023-05-13T16:07:55;17.00;93.50
8633;DHT22;4354;49.832;10.746;2023-05-13T16:10:22;17.00;94.80
8633;DHT22;4354;49.832;10.746;2023-05-13T16:12:50;17.00;93.90
8633;DHT22;4354;49.832;10.746;2023-05-13T16:15:17;17.00;93.80
8633;DHT22;4354;49.832;10.746;2023-05-13T16:17:43;17.00;94.00
8633;DHT22;4354;49.832;10.746;2023-05-13T16:20:11;17.00;92.50
8633;DHT22;4354;49.832;10.746;2023-05-13T16:22:39;17.00;94.30
8633;DHT22;4354;49.832;10.746;2023-05-13T16:25:07;17.00;94.30
8633;DHT22;4354;49.832;10.746;2023-05-13T16:27:35;16.90;94.20
8633;DHT22;4354;49.832;10.746;2023-05-13T16:30:04;17.00;94.20